sensor_id;sensor_type;location;lat;lon;timestamp;pressure;altitude;pressure_sealevel;temperature;humidity
12785;BME280;6456;42.680;23.260;2023-03-01T00:00:41;95126.94;;;6.72;100.00
12785;BME280;6456;42.680;23.260;2023-03-01T00:03:11;95121.44;;;6.67;100.00
12785;BME280;6456;42.680;23.260;2023-03-01T00:05:45;95104.56;;;6.55;100.00
12785;BME280;6456;42.680;23.260;2023-03-01T00:08:12;95113.97;;;6.64;100.00
12785;BME280;6456;42.680;23.260;2023-03-01T00:10:39;95113.50;;;6.60;100.00
12785;BME280;6456;42.680;23.260;2023-03-01T00:13:06;95105.84;;;6.59;100.00
12785;BME280;6456;42.680;23.260;2023-03-01T00:15:32;95014.81;;;6.02;100.00
12785;BME280;6456;42.680;23.260;2023-03-01T00:18:00;94960.88;;;5.64;100.00
12785;BME280;6456;42.680;23.260;2023-03-01T00:20:27;95104.44;;;6.71;100.00
12785;BME280;6456;42.680;23.260;2023-03-01T00:22:55;95104.78;;;6.68;100.00
12785;BME280;6456;42.680;23.260;2023-03-01T00:25:22;95095.06;;;6.76;100.00
12785;BME280;6456;42.680;23.260;2023-03-01T00:27:48;95050.53;;;6.47;100.00
12785;BME280;6456;42.680;23.260;2023-03-01T00:30:16;95088.88;;;6.69;100.00
12785;BME280;6456;42.680;23.260;2023-03-01T00:32:42;94947.91;;;6.01;100.00
12785;BME280;6456;42.680;23.260;2023-03-01T00:35:09;94954.78;;;5.94;100.00
12785;BME280;6456;42.680;23.260;2023-03-01T00:37:36;95090.00;;;6.75;100.00
12785;BME280;6456;42.680;23.260;2023-03-01T00:40:06;95084.13;;;6.73;100.00
12785;BME280;6456;42.680;23.260;2023-03-01T00:42:33;95087.94;;;6.85;100.00
12785;BME280;6456;42.680;23.260;2023-03-01T00:44:59;95099.41;;;6.84;100.00
12785;BME280;6456;42.680;23.260;2023-03-01T00:47:28;95069.97;;;6.82;100.00
12785;BME280;6456;42.680;23.260;2023-03-01T00:49:55;95066.84;;;6.86;100.00
12785;BME280;6456;42.680;23.260;2023-03-01T00:52:22;95086.69;;;6.95;100.00
12785;BME280;6456;42.680;23.260;2023-03-01T00:54:52;95026.59;;;6.58;100.00
12785;BME280;6456;42.680;23.260;2023-03-01T00:57:20;95077.41;;;6.93;100.00
12785;BME280;6456;42.680;23.260;2023-03-01T00:59:47;95075.75;;;6.92;100.00
12785;BME280;6456;42.680;23.260;2023-03-01T01:02:14;95076.59;;;6.92;100.00
12785;BME280;6456;42.680;23.260;2023-03-01T01:04:41;95081.63;;;6.94;100.00
12785;BME280;6456;42.680;23.260;2023-03-01T01:07:07;95087.25;;;6.91;100.00
12785;BME280;6456;42.680;23.260;2023-03-01T01:09:34;95024.94;;;6.42;100.00
12785;BME280;6456;42.680;23.260;2023-03-01T01:12:01;95080.66;;;6.95;100.00
12785;BME280;6456;42.680;23.260;2023-03-01T01:14:30;95085.06;;;6.94;100.00
12785;BME280;6456;42.680;23.260;2023-03-01T01:16:57;95085.25;;;6.93;100.00
12785;BME280;6456;42.680;23.260;2023-03-01T01:19:25;95083.34;;;6.87;100.00
12785;BME280;6456;42.680;23.260;2023-03-01T01:21:52;95100.31;;;6.91;100.00
12785;BME280;6456;42.680;23.260;2023-03-01T01:24:19;95073.31;;;6.76;100.00
12785;BME280;6456;42.680;23.260;2023-03-01T01:26:46;95063.78;;;6.83;100.00
12785;BME280;6456;42.680;23.260;2023-03-01T01:29:13;95070.25;;;6.87;100.00
12785;BME280;6456;42.680;23.260;2023-03-01T01:31:42;95080.84;;;6.93;100.00
12785;BME280;6456;42.680;23.260;2023-03-01T01:34:18;95039.31;;;6.76;100.00
12785;BME280;6456;42.680;23.260;2023-03-01T01:36:47;95066.94;;;7.07;100.00
12785;BME280;6456;42.680;23.260;2023-03-01T01:39:15;95064.25;;;7.01;100.00
12785;BME280;6456;42.680;23.260;2023-03-01T01:41:42;95072.63;;;7.11;100.00
12785;BME280;6456;42.680;23.260;2023-03-01T01:44:18;95093.66;;;7.32;100.00
12785;BME280;6456;42.680;23.260;2023-03-01T01:46:49;95083.81;;;7.05;100.00
12785;BME280;6456;42.680;23.260;2023-03-01T01:49:25;95086.69;;;7.10;100.00
12785;BME280;6456;42.680;23.260;2023-03-01T01:51:59;95082.38;;;7.17;100.00
12785;BME280;6456;42.680;23.260;2023-03-01T01:54:29;95093.94;;;7.23;100.00
12785;BME280;6456;42.680;23.260;2023-03-01T01:57:01;95071.81;;;6.96;100.00
12785;BME280;6456;42.680;23.260;2023-03-01T01:59:30;95010.34;;;6.63;100.00
12785;BME280;6456;42.680;23.260;2023-03-01T02:02:02;95092.47;;;7.20;100.00
12785;BME280;6456;42.680;23.260;2023-03-01T02:04:30;95018.47;;;6.68;100.00
12785;BME280;6456;42.680;23.260;2023-03-01T02:07:01;95047.19;;;6.90;100.00
12785;BME280;6456;42.680;23.260;2023-03-01T02:09:30;95061.63;;;7.01;100.00
12785;BME280;6456;42.680;23.260;2023-03-01T02:11:58;95021.38;;;6.73;100.00
12785;BME280;6456;42.680;23.260;2023-03-01T02:14:25;95068.75;;;7.22;100.00
12785;BME280;6456;42.680;23.260;2023-03-01T02:16:53;94977.63;;;6.67;100.00
12785;BME280;6456;42.680;23.260;2023-03-01T02:19:30;95059.81;;;7.16;100.00
12785;BME280;6456;42.680;23.260;2023-03-01T02:22:05;95058.53;;;7.12;100.00
12785;BME280;6456;42.680;23.260;2023-03-01T02:24:43;94968.88;;;6.60;100.00
12785;BME280;6456;42.680;23.260;2023-03-01T02:27:19;95060.88;;;7.22;100.00
12785;BME280;6456;42.680;23.260;2023-03-01T02:29:51;95040.34;;;7.19;100.00
12785;BME280;6456;42.680;23.260;2023-03-01T02:32:19;95065.06;;;7.31;100.00
12785;BME280;6456;42.680;23.260;2023-03-01T02:34:51;95070.56;;;7.36;100.00
12785;BME280;6456;42.680;23.260;2023-03-01T02:37:19;95082.28;;;7.40;100.00
12785;BME280;6456;42.680;23.260;2023-03-01T02:39:54;95074.63;;;7.38;100.00
12785;BME280;6456;42.680;23.260;2023-03-01T02:42:26;95068.66;;;7.30;100.00
12785;BME280;6456;42.680;23.260;2023-03-01T02:44:56;94930.91;;;6.34;100.00
12785;BME280;6456;42.680;23.260;2023-03-01T02:47:23;95015.50;;;6.71;100.00
12785;BME280;6456;42.680;23.260;2023-03-01T02:49:49;95028.88;;;6.90;100.00
12785;BME280;6456;42.680;23.260;2023-03-01T02:52:24;95037.53;;;6.91;100.00
12785;BME280;6456;42.680;23.260;2023-03-01T02:54:59;95068.03;;;6.98;100.00
12785;BME280;6456;42.680;23.260;2023-03-01T02:57:28;95058.19;;;6.86;100.00
12785;BME280;6456;42.680;23.260;2023-03-01T03:00:00;95068.25;;;6.89;100.00
12785;BME280;6456;42.680;23.260;2023-03-01T03:02:32;95068.19;;;6.97;100.00
12785;BME280;6456;42.680;23.260;2023-03-01T03:05:07;95067.38;;;6.96;100.00
12785;BME280;6456;42.680;23.260;2023-03-01T03:07:35;94967.75;;;6.25;100.00
12785;BME280;6456;42.680;23.260;2023-03-01T03:10:03;95063.50;;;6.78;100.00
12785;BME280;6456;42.680;23.260;2023-03-01T03:12:30;95073.03;;;6.71;100.00
12785;BME280;6456;42.680;23.260;2023-03-01T03:14:58;95070.03;;;6.59;100.00
12785;BME280;6456;42.680;23.260;2023-03-01T03:17:25;94924.25;;;5.72;100.00
12785;BME280;6456;42.680;23.260;2023-03-01T03:19:52;95054.25;;;6.53;100.00
12785;BME280;6456;42.680;23.260;2023-03-01T03:22:19;94991.53;;;6.15;100.00
12785;BME280;6456;42.680;23.260;2023-03-01T03:24:46;94982.06;;;6.14;100.00
12785;BME280;6456;42.680;23.260;2023-03-01T03:27:13;94971.78;;;6.13;100.00
12785;BME280;6456;42.680;23.260;2023-03-01T03:29:39;95072.22;;;6.70;100.00
12785;BME280;6456;42.680;23.260;2023-03-01T03:32:08;95073.03;;;6.71;100.00
12785;BME280;6456;42.680;23.260;2023-03-01T03:34:34;95009.91;;;6.22;100.00
12785;BME280;6456;42.680;23.260;2023-03-01T03:37:01;95067.50;;;6.51;100.00
12785;BME280;6456;42.680;23.260;2023-03-01T03:39:28;94983.41;;;5.88;100.00
12785;BME280;6456;42.680;23.260;2023-03-01T03:42:00;95001.22;;;6.07;100.00
12785;BME280;6456;42.680;23.260;2023-03-01T03:44:27;95033.09;;;6.25;100.00
12785;BME280;6456;42.680;23.260;2023-03-01T03:46:54;94978.00;;;5.89;100.00
12785;BME280;6456;42.680;23.260;2023-03-01T03:49:22;95082.47;;;6.57;100.00
12785;BME280;6456;42.680;23.260;2023-03-01T03:51:49;95073.44;;;6.45;100.00
12785;BME280;6456;42.680;23.260;2023-03-01T03:54:16;95081.47;;;6.43;100.00
12785;BME280;6456;42.680;23.260;2023-03-01T03:56:42;95073.50;;;6.37;100.00
12785;BME280;6456;42.680;23.260;2023-03-01T03:59:09;95012.97;;;5.88;100.00
12785;BME280;6456;42.680;23.260;2023-03-01T04:01:37;94923.09;;;5.29;100.00
12785;BME280;6456;42.680;23.260;2023-03-01T04:04:04;95077.56;;;6.17;100.00
12785;BME280;6456;42.680;23.260;2023-03-01T04:06:34;95062.75;;;6.09;100.00
12785;BME280;6456;42.680;23.260;2023-03-01T04:09:01;95015.94;;;5.77;100.00
12785;BME280;6456;42.680;23.260;2023-03-01T04:11:28;95082.16;;;6.15;100.00
12785;BME280;6456;42.680;23.260;2023-03-01T04:13:56;95088.81;;;6.17;100.00
12785;BME280;6456;42.680;23.260;2023-03-01T04:16:24;95076.44;;;6.11;100.00
12785;BME280;6456;42.680;23.260;2023-03-01T04:18:51;94993.28;;;5.47;100.00
12785;BME280;6456;42.680;23.260;2023-03-01T04:21:20;95064.03;;;5.91;100.00
12785;BME280;6456;42.680;23.260;2023-03-01T04:23:48;95084.53;;;6.02;100.00
12785;BME280;6456;42.680;23.260;2023-03-01T04:26:18;95080.75;;;6.04;100.00
12785;BME280;6456;42.680;23.260;2023-03-01T04:28:46;95085.22;;;5.96;100.00
12785;BME280;6456;42.680;23.260;2023-03-01T04:31:16;95008.13;;;5.46;100.00
12785;BME280;6456;42.680;23.260;2023-03-01T04:33:45;95084.94;;;5.91;100.00
12785;BME280;6456;42.680;23.260;2023-03-01T04:36:14;95084.31;;;5.89;100.00
12785;BME280;6456;42.680;23.260;2023-03-01T04:38:41;95071.69;;;5.92;100.00
12785;BME280;6456;42.680;23.260;2023-03-01T04:41:15;94985.63;;;5.45;100.00
12785;BME280;6456;42.680;23.260;2023-03-01T04:43:42;95074.94;;;5.94;100.00
12785;BME280;6456;42.680;23.260;2023-03-01T04:46:11;95075.47;;;5.90;100.00
12785;BME280;6456;42.680;23.260;2023-03-01T04:48:40;94996.41;;;5.42;100.00
12785;BME280;6456;42.680;23.260;2023-03-01T04:51:07;95051.34;;;5.79;100.00
12785;BME280;6456;42.680;23.260;2023-03-01T04:53:35;95060.31;;;5.85;100.00
12785;BME280;6456;42.680;23.260;2023-03-01T04:56:03;95059.00;;;5.81;100.00
12785;BME280;6456;42.680;23.260;2023-03-01T04:58:32;94956.13;;;5.14;100.00
12785;BME280;6456;42.680;23.260;2023-03-01T05:00:58;95054.28;;;5.85;100.00
12785;BME280;6456;42.680;23.260;2023-03-01T05:03:25;95024.94;;;5.74;100.00
12785;BME280;6456;42.680;23.260;2023-03-01T05:05:53;95063.19;;;5.98;100.00
12785;BME280;6456;42.680;23.260;2023-03-01T05:08:20;95043.97;;;5.83;100.00
12785;BME280;6456;42.680;23.260;2023-03-01T05:10:50;95072.31;;;5.94;100.00
12785;BME280;6456;42.680;23.260;2023-03-01T05:13:18;95037.16;;;5.74;100.00
12785;BME280;6456;42.680;23.260;2023-03-01T05:15:49;94939.19;;;5.10;100.00
12785;BME280;6456;42.680;23.260;2023-03-01T05:18:20;95037.72;;;5.61;100.00
12785;BME280;6456;42.680;23.260;2023-03-01T05:20:51;95046.63;;;5.75;100.00
12785;BME280;6456;42.680;23.260;2023-03-01T05:23:18;95069.78;;;5.78;100.00
12785;BME280;6456;42.680;23.260;2023-03-01T05:25:48;95082.28;;;5.99;100.00
12785;BME280;6456;42.680;23.260;2023-03-01T05:28:19;95062.59;;;5.88;100.00
12785;BME280;6456;42.680;23.260;2023-03-01T05:30:48;94900.81;;;4.96;100.00
12785;BME280;6456;42.680;23.260;2023-03-01T05:33:16;94896.75;;;4.93;100.00
12785;BME280;6456;42.680;23.260;2023-03-01T05:35:45;95020.22;;;5.70;100.00
12785;BME280;6456;42.680;23.260;2023-03-01T05:38:14;94956.25;;;5.21;100.00
12785;BME280;6456;42.680;23.260;2023-03-01T05:40:41;95072.47;;;6.01;100.00
12785;BME280;6456;42.680;23.260;2023-03-01T05:43:09;94994.09;;;5.47;100.00
12785;BME280;6456;42.680;23.260;2023-03-01T05:45:37;95077.16;;;6.05;100.00
12785;BME280;6456;42.680;23.260;2023-03-01T05:48:09;95076.69;;;6.02;100.00
12785;BME280;6456;42.680;23.260;2023-03-01T05:50:38;95078.13;;;6.04;100.00
12785;BME280;6456;42.680;23.260;2023-03-01T05:53:07;95089.94;;;6.00;100.00
12785;BME280;6456;42.680;23.260;2023-03-01T05:55:35;95055.16;;;5.69;100.00
12785;BME280;6456;42.680;23.260;2023-03-01T05:58:05;94951.75;;;5.06;100.00
12785;BME280;6456;42.680;23.260;2023-03-01T06:00:33;95103.09;;;6.07;100.00
12785;BME280;6456;42.680;23.260;2023-03-01T06:03:01;95110.94;;;6.07;100.00
12785;BME280;6456;42.680;23.260;2023-03-01T06:05:30;95058.97;;;5.58;100.00
12785;BME280;6456;42.680;23.260;2023-03-01T06:07:59;95102.34;;;5.98;100.00
12785;BME280;6456;42.680;23.260;2023-03-01T06:10:26;95017.16;;;5.36;100.00
12785;BME280;6456;42.680;23.260;2023-03-01T06:12:54;95034.66;;;5.58;100.00
12785;BME280;6456;42.680;23.260;2023-03-01T06:15:21;95106.41;;;6.01;100.00
12785;BME280;6456;42.680;23.260;2023-03-01T06:17:48;95042.78;;;5.63;100.00
12785;BME280;6456;42.680;23.260;2023-03-01T06:20:17;95108.88;;;5.94;100.00
12785;BME280;6456;42.680;23.260;2023-03-01T06:22:47;95137.88;;;6.07;100.00
12785;BME280;6456;42.680;23.260;2023-03-01T06:25:16;95125.59;;;6.16;100.00
12785;BME280;6456;42.680;23.260;2023-03-01T06:27:43;95132.28;;;6.18;100.00
12785;BME280;6456;42.680;23.260;2023-03-01T06:30:12;95097.47;;;5.95;100.00
12785;BME280;6456;42.680;23.260;2023-03-01T06:32:39;95058.34;;;5.79;100.00
12785;BME280;6456;42.680;23.260;2023-03-01T06:35:08;95048.31;;;5.68;100.00
12785;BME280;6456;42.680;23.260;2023-03-01T06:37:35;95094.44;;;6.06;100.00
12785;BME280;6456;42.680;23.260;2023-03-01T06:40:05;95059.63;;;5.91;100.00
12785;BME280;6456;42.680;23.260;2023-03-01T06:42:50;95130.84;;;6.38;100.00
12785;BME280;6456;42.680;23.260;2023-03-01T06:45:18;95122.91;;;6.46;100.00
12785;BME280;6456;42.680;23.260;2023-03-01T06:47:45;95044.25;;;5.96;100.00
12785;BME280;6456;42.680;23.260;2023-03-01T06:50:13;95024.59;;;5.77;100.00
12785;BME280;6456;42.680;23.260;2023-03-01T06:52:41;95032.34;;;5.94;100.00
12785;BME280;6456;42.680;23.260;2023-03-01T06:55:11;94962.44;;;5.50;100.00
12785;BME280;6456;42.680;23.260;2023-03-01T06:57:38;95116.94;;;6.61;100.00
12785;BME280;6456;42.680;23.260;2023-03-01T07:00:08;94985.06;;;5.80;100.00
12785;BME280;6456;42.680;23.260;2023-03-01T07:02:35;95013.31;;;6.08;100.00
12785;BME280;6456;42.680;23.260;2023-03-01T07:05:02;95114.34;;;6.75;100.00
12785;BME280;6456;42.680;23.260;2023-03-01T07:07:29;95031.41;;;6.09;100.00
12785;BME280;6456;42.680;23.260;2023-03-01T07:09:56;95044.06;;;6.20;100.00
12785;BME280;6456;42.680;23.260;2023-03-01T07:12:24;95064.72;;;6.30;100.00
12785;BME280;6456;42.680;23.260;2023-03-01T07:14:51;95024.19;;;6.11;100.00
12785;BME280;6456;42.680;23.260;2023-03-01T07:17:18;95129.41;;;6.73;100.00
12785;BME280;6456;42.680;23.260;2023-03-01T07:19:44;95013.00;;;6.03;100.00
12785;BME280;6456;42.680;23.260;2023-03-01T07:22:11;95135.88;;;6.63;100.00
12785;BME280;6456;42.680;23.260;2023-03-01T07:24:38;95061.94;;;6.31;100.00
12785;BME280;6456;42.680;23.260;2023-03-01T07:27:27;95143.75;;;6.77;100.00
12785;BME280;6456;42.680;23.260;2023-03-01T07:29:54;95038.50;;;6.23;100.00
12785;BME280;6456;42.680;23.260;2023-03-01T07:32:20;95063.22;;;6.35;100.00
12785;BME280;6456;42.680;23.260;2023-03-01T07:34:47;94955.59;;;5.72;100.00
12785;BME280;6456;42.680;23.260;2023-03-01T07:37:14;95059.88;;;6.41;100.00
12785;BME280;6456;42.680;23.260;2023-03-01T07:39:41;95090.06;;;6.67;100.00
12785;BME280;6456;42.680;23.260;2023-03-01T07:42:08;95017.00;;;6.36;100.00
12785;BME280;6456;42.680;23.260;2023-03-01T07:44:36;95008.75;;;6.24;100.00
12785;BME280;6456;42.680;23.260;2023-03-01T07:47:03;95026.84;;;6.49;100.00
12785;BME280;6456;42.680;23.260;2023-03-01T07:49:30;95032.38;;;6.68;100.00
12785;BME280;6456;42.680;23.260;2023-03-01T07:51:57;94975.06;;;6.29;100.00
12785;BME280;6456;42.680;23.260;2023-03-01T07:54:24;95096.63;;;7.15;100.00
12785;BME280;6456;42.680;23.260;2023-03-01T07:56:51;95010.28;;;6.71;100.00
12785;BME280;6456;42.680;23.260;2023-03-01T07:59:20;95060.97;;;6.99;100.00
12785;BME280;6456;42.680;23.260;2023-03-01T08:01:48;95056.28;;;7.09;100.00
12785;BME280;6456;42.680;23.260;2023-03-01T08:04:15;95018.69;;;6.81;100.00
12785;BME280;6456;42.680;23.260;2023-03-01T08:06:41;94954.91;;;6.53;100.00
12785;BME280;6456;42.680;23.260;2023-03-01T08:09:08;95062.06;;;7.19;100.00
12785;BME280;6456;42.680;23.260;2023-03-01T08:11:35;95094.00;;;7.58;100.00
12785;BME280;6456;42.680;23.260;2023-03-01T08:14:03;94991.06;;;6.93;100.00
12785;BME280;6456;42.680;23.260;2023-03-01T08:16:29;95077.31;;;7.45;100.00
12785;BME280;6456;42.680;23.260;2023-03-01T08:19:03;95076.22;;;7.54;100.00
12785;BME280;6456;42.680;23.260;2023-03-01T08:21:30;95102.53;;;7.82;100.00
12785;BME280;6456;42.680;23.260;2023-03-01T08:23:57;94905.16;;;6.61;100.00
12785;BME280;6456;42.680;23.260;2023-03-01T08:26:24;95107.31;;;7.93;100.00
12785;BME280;6456;42.680;23.260;2023-03-01T08:28:51;95084.16;;;7.60;100.00
12785;BME280;6456;42.680;23.260;2023-03-01T08:31:20;95078.81;;;7.68;100.00
12785;BME280;6456;42.680;23.260;2023-03-01T08:33:48;95037.31;;;7.51;100.00
12785;BME280;6456;42.680;23.260;2023-03-01T08:36:21;95111.59;;;8.15;100.00
12785;BME280;6456;42.680;23.260;2023-03-01T08:38:48;95049.88;;;7.76;100.00
12785;BME280;6456;42.680;23.260;2023-03-01T08:41:15;94947.47;;;7.15;100.00
12785;BME280;6456;42.680;23.260;2023-03-01T08:43:43;95042.25;;;7.96;100.00
12785;BME280;6456;42.680;23.260;2023-03-01T08:46:10;95069.09;;;8.34;100.00
12785;BME280;6456;42.680;23.260;2023-03-01T08:48:37;95103.72;;;8.51;100.00
12785;BME280;6456;42.680;23.260;2023-03-01T08:51:07;95070.00;;;8.12;100.00
12785;BME280;6456;42.680;23.260;2023-03-01T08:53:36;95108.53;;;8.68;100.00
12785;BME280;6456;42.680;23.260;2023-03-01T08:56:04;95113.69;;;8.62;100.00
12785;BME280;6456;42.680;23.260;2023-03-01T08:58:31;95032.91;;;8.29;100.00
12785;BME280;6456;42.680;23.260;2023-03-01T09:00:58;95066.78;;;8.52;100.00
12785;BME280;6456;42.680;23.260;2023-03-01T09:03:26;95016.25;;;8.16;100.00
12785;BME280;6456;42.680;23.260;2023-03-01T09:05:53;95113.00;;;8.74;100.00
12785;BME280;6456;42.680;23.260;2023-03-01T09:08:19;95079.13;;;8.52;100.00
12785;BME280;6456;42.680;23.260;2023-03-01T09:10:48;95054.25;;;8.69;100.00
12785;BME280;6456;42.680;23.260;2023-03-01T09:13:15;95013.13;;;8.48;99.88
12785;BME280;6456;42.680;23.260;2023-03-01T09:15:41;95023.41;;;8.50;99.31
12785;BME280;6456;42.680;23.260;2023-03-01T09:18:08;95112.16;;;9.23;99.88
12785;BME280;6456;42.680;23.260;2023-03-01T09:20:35;95093.06;;;9.08;99.40
12785;BME280;6456;42.680;23.260;2023-03-01T09:23:02;95106.28;;;9.21;99.27
12785;BME280;6456;42.680;23.260;2023-03-01T09:25:29;95103.81;;;9.47;98.88
12785;BME280;6456;42.680;23.260;2023-03-01T09:27:57;94946.56;;;8.49;97.15
12785;BME280;6456;42.680;23.260;2023-03-01T09:30:24;95071.78;;;9.24;96.92
12785;BME280;6456;42.680;23.260;2023-03-01T09:32:51;95053.16;;;9.19;96.04
12785;BME280;6456;42.680;23.260;2023-03-01T09:35:18;94969.69;;;8.39;97.38
12785;BME280;6456;42.680;23.260;2023-03-01T09:37:45;94990.16;;;8.08;99.94
12785;BME280;6456;42.680;23.260;2023-03-01T09:40:15;94942.50;;;7.98;100.00
12785;BME280;6456;42.680;23.260;2023-03-01T09:42:51;95004.47;;;8.26;99.79
12785;BME280;6456;42.680;23.260;2023-03-01T09:45:26;95078.50;;;8.77;100.00
12785;BME280;6456;42.680;23.260;2023-03-01T09:47:55;95035.41;;;8.86;100.00
12785;BME280;6456;42.680;23.260;2023-03-01T09:50:23;95040.00;;;8.84;99.45
12785;BME280;6456;42.680;23.260;2023-03-01T09:52:55;94958.50;;;8.30;99.29
12785;BME280;6456;42.680;23.260;2023-03-01T09:55:31;94920.34;;;8.49;97.73
12785;BME280;6456;42.680;23.260;2023-03-01T09:58:02;94951.25;;;8.32;97.80
12785;BME280;6456;42.680;23.260;2023-03-01T10:00:38;95063.06;;;9.17;98.63
12785;BME280;6456;42.680;23.260;2023-03-01T10:03:14;94998.31;;;8.96;97.53
12785;BME280;6456;42.680;23.260;2023-03-01T10:05:52;94979.81;;;8.76;97.70
12785;BME280;6456;42.680;23.260;2023-03-01T10:08:35;95027.28;;;9.09;98.17
12785;BME280;6456;42.680;23.260;2023-03-01T10:11:08;94998.09;;;8.63;99.19
12785;BME280;6456;42.680;23.260;2023-03-01T10:13:45;95016.84;;;8.60;99.90
12785;BME280;6456;42.680;23.260;2023-03-01T10:16:22;94968.28;;;8.43;100.00
12785;BME280;6456;42.680;23.260;2023-03-01T10:18:55;95062.34;;;9.36;99.92
12785;BME280;6456;42.680;23.260;2023-03-01T10:21:27;95057.56;;;9.46;98.89
12785;BME280;6456;42.680;23.260;2023-03-01T10:23:55;95063.56;;;9.74;98.12
12785;BME280;6456;42.680;23.260;2023-03-01T10:26:40;95037.97;;;9.55;96.63
12785;BME280;6456;42.680;23.260;2023-03-01T10:29:11;95003.97;;;9.34;96.64
12785;BME280;6456;42.680;23.260;2023-03-01T10:31:42;95015.75;;;9.57;96.33
12785;BME280;6456;42.680;23.260;2023-03-01T10:34:12;95023.31;;;9.74;95.67
12785;BME280;6456;42.680;23.260;2023-03-01T10:36:40;95028.44;;;10.08;94.74
12785;BME280;6456;42.680;23.260;2023-03-01T10:39:14;94980.63;;;9.58;95.31
12785;BME280;6456;42.680;23.260;2023-03-01T10:42:00;95046.31;;;10.19;94.17
12785;BME280;6456;42.680;23.260;2023-03-01T10:44:40;95032.47;;;9.97;94.25
12785;BME280;6456;42.680;23.260;2023-03-01T10:47:18;95051.19;;;10.22;93.42
12785;BME280;6456;42.680;23.260;2023-03-01T10:50:17;95051.19;;;10.35;92.48
12785;BME280;6456;42.680;23.260;2023-03-01T10:52:56;94996.91;;;10.01;92.95
12785;BME280;6456;42.680;23.260;2023-03-01T10:55:27;94955.00;;;9.74;92.75
12785;BME280;6456;42.680;23.260;2023-03-01T10:58:08;95050.59;;;10.26;92.44
12785;BME280;6456;42.680;23.260;2023-03-01T11:00:47;94975.84;;;9.88;92.70
12785;BME280;6456;42.680;23.260;2023-03-01T11:03:18;94911.50;;;9.58;91.84
12785;BME280;6456;42.680;23.260;2023-03-01T11:06:12;95039.44;;;10.38;91.52
12785;BME280;6456;42.680;23.260;2023-03-01T11:08:48;94968.31;;;9.72;91.80
12785;BME280;6456;42.680;23.260;2023-03-01T11:11:30;94982.09;;;9.81;91.52
12785;BME280;6456;42.680;23.260;2023-03-01T11:14:00;95022.22;;;10.15;91.34
12785;BME280;6456;42.680;23.260;2023-03-01T11:16:33;94978.81;;;9.59;92.34
12785;BME280;6456;42.680;23.260;2023-03-01T11:19:14;94998.47;;;9.76;93.04
12785;BME280;6456;42.680;23.260;2023-03-01T11:21:50;94895.97;;;8.96;93.42
12785;BME280;6456;42.680;23.260;2023-03-01T11:24:19;94986.81;;;9.38;94.75
12785;BME280;6456;42.680;23.260;2023-03-01T11:26:53;94958.25;;;9.22;93.86
12785;BME280;6456;42.680;23.260;2023-03-01T11:29:26;94926.69;;;9.09;94.64
12785;BME280;6456;42.680;23.260;2023-03-01T11:32:00;94877.13;;;8.86;94.56
12785;BME280;6456;42.680;23.260;2023-03-01T11:34:38;94868.13;;;9.01;94.49
12785;BME280;6456;42.680;23.260;2023-03-01T11:37:16;95017.13;;;10.07;93.46
12785;BME280;6456;42.680;23.260;2023-03-01T11:39:54;94953.53;;;9.58;93.64
12785;BME280;6456;42.680;23.260;2023-03-01T11:42:29;95014.69;;;9.99;94.44
12785;BME280;6456;42.680;23.260;2023-03-01T11:45:02;94946.66;;;9.57;94.16
12785;BME280;6456;42.680;23.260;2023-03-01T11:47:45;94903.78;;;9.50;93.80
12785;BME280;6456;42.680;23.260;2023-03-01T11:50:23;95000.34;;;10.08;93.51
12785;BME280;6456;42.680;23.260;2023-03-01T11:53:01;94937.34;;;9.54;93.97
12785;BME280;6456;42.680;23.260;2023-03-01T11:55:45;94962.16;;;9.39;95.07
12785;BME280;6456;42.680;23.260;2023-03-01T11:58:29;94847.00;;;8.75;95.72
12785;BME280;6456;42.680;23.260;2023-03-01T12:01:12;94907.84;;;9.39;95.69
12785;BME280;6456;42.680;23.260;2023-03-01T12:04:00;94976.25;;;9.92;95.54
12785;BME280;6456;42.680;23.260;2023-03-01T12:06:37;94885.78;;;9.34;94.82
12785;BME280;6456;42.680;23.260;2023-03-01T12:09:26;94852.16;;;8.96;95.73
12785;BME280;6456;42.680;23.260;2023-03-01T12:15:26;94924.81;;;9.50;95.46
12785;BME280;6456;42.680;23.260;2023-03-01T12:18:11;94890.44;;;9.32;95.66
12785;BME280;6456;42.680;23.260;2023-03-01T12:20:46;94981.69;;;9.90;95.93
12785;BME280;6456;42.680;23.260;2023-03-01T12:23:45;94903.19;;;9.48;95.19
12785;BME280;6456;42.680;23.260;2023-03-01T12:26:29;94880.16;;;9.43;94.05
12785;BME280;6456;42.680;23.260;2023-03-01T12:29:07;94988.88;;;10.36;93.58
12785;BME280;6456;42.680;23.260;2023-03-01T12:34:53;94824.81;;;9.51;91.39
12785;BME280;6456;42.680;23.260;2023-03-01T12:37:29;94911.59;;;10.17;91.08
12785;BME280;6456;42.680;23.260;2023-03-01T12:40:18;94912.78;;;10.01;91.21
12785;BME280;6456;42.680;23.260;2023-03-01T12:42:56;94922.94;;;10.24;91.67
12785;BME280;6456;42.680;23.260;2023-03-01T12:48:42;94969.25;;;10.38;90.69
12785;BME280;6456;42.680;23.260;2023-03-01T12:51:15;94891.34;;;10.04;91.00
12785;BME280;6456;42.680;23.260;2023-03-01T12:53:46;94858.16;;;9.90;90.29
12785;BME280;6456;42.680;23.260;2023-03-01T12:56:20;94803.78;;;9.58;89.52
12785;BME280;6456;42.680;23.260;2023-03-01T12:58:56;94914.81;;;10.25;89.12
12785;BME280;6456;42.680;23.260;2023-03-01T13:01:34;94919.50;;;10.17;90.79
12785;BME280;6456;42.680;23.260;2023-03-01T13:04:26;94947.81;;;10.21;90.49
12785;BME280;6456;42.680;23.260;2023-03-01T13:07:07;94930.59;;;10.12;90.99
12785;BME280;6456;42.680;23.260;2023-03-01T13:09:41;94883.44;;;9.72;91.05
12785;BME280;6456;42.680;23.260;2023-03-01T13:12:43;94977.53;;;10.35;91.32
12785;BME280;6456;42.680;23.260;2023-03-01T13:15:31;94968.44;;;10.18;92.03
12785;BME280;6456;42.680;23.260;2023-03-01T13:18:01;94900.03;;;9.79;92.23
12785;BME280;6456;42.680;23.260;2023-03-01T13:20:34;94837.09;;;9.31;92.37
12785;BME280;6456;42.680;23.260;2023-03-01T13:23:21;94953.00;;;9.95;93.44
12785;BME280;6456;42.680;23.260;2023-03-01T13:26:13;94908.28;;;9.82;92.82
12785;BME280;6456;42.680;23.260;2023-03-01T13:28:47;94961.75;;;10.35;91.83
12785;BME280;6456;42.680;23.260;2023-03-01T13:34:48;94873.13;;;9.90;91.30